1922 NOT_NAMED (1922123N11145)


IBTrACS version v04r00. Visit IBTrACS website for data access.
Please direct all questions to the IBTrACS Q and A forum

Storm track - Intensity - Wind Radii - Intensity Data - Source Data - All data

Summary Information

Storm ID 1922123N11145
Start May 2 22Z
End May 5 22Z
ATCF IDs
Track status Best track data.

Storm track plot

Map of storm track

Intensity plots

No Intensity information for this storm


Radial wind information

No radial wind information for this storm


Position and Intensity Table

BASIN ISO_TIME_________ NATURE LAT LON
degrees north degrees east
WP 1922-05-02 22:00:00 NR 10.50 145.00
WP 1922-05-03 00:00:00 NR 10.54 144.75
WP 03:00:00 NR 10.60 144.37
WP 06:00:00 NR 10.68 144.02
WP 09:00:00 NR 10.77 143.70
WP 10:00:00 NR 10.80 143.60
WP 12:00:00 NR 10.88 143.42
WP 15:00:00 NR 11.02 143.19
WP 18:00:00 NR 11.20 143.00
WP 21:00:00 NR 11.42 142.85
WP 22:00:00 NR 11.50 142.80
WP 1922-05-04 00:00:00 NR 11.67 142.71
WP 03:00:00 NR 11.97 142.59
WP 06:00:00 NR 12.31 142.50
WP 09:00:00 NR 12.67 142.43
WP 10:00:00 NR 12.80 142.40
WP 12:00:00 NR 13.05 142.34
WP 15:00:00 NR 13.44 142.25
WP 18:00:00 NR 13.85 142.18
WP 21:00:00 NR 14.26 142.12
WP 22:00:00 NR 14.40 142.10
WP 1922-05-05 00:00:00 NR 14.67 142.07
WP 03:00:00 NR 15.09 142.03
WP 06:00:00 NR 15.49 142.01
WP 09:00:00 NR 15.88 142.00
WP 10:00:00 NR 16.00 142.00
WP 12:00:00 NR 16.24 142.01
WP 15:00:00 NR 16.57 142.03
WP 18:00:00 NR 16.89 142.05
WP 21:00:00 NR 17.20 142.09
WP 22:00:00 NR 17.30 142.10

Source Information

Agency Information
USA
TOKYO
CMA
HKO
NEWDELHI
REUNION
BOM
NADI
WELLINGTON
DS824
TD9636 cons_worldwide_trop_cyclone_18710101-19891231-003:Line=6592
TD9635
NEUMANN
MLC

All available IBTrACS Data

SEASON BASIN SUBBASIN ISO_TIME_________ NATURE LAT LON DIST2LAND LANDFALL IFLAG USA SSHS TD9636 LAT TD9636 LON TD9636 STAGE STORM SPEED STORM DIR
Year degrees north degrees east km km 1 degrees north degrees east kts degrees
1922 WP MM 1922-05-02 22:00:00 NR 10.50 145.00 1422 1422 __________O___ -1 10.50 145.00 2 8 279
1922 WP MM 1922-05-03 00:00:00 NR 10.54 144.75 1427 1427 __________P___ -1 10.54 144.75 2 8 279
1922 WP MM 03:00:00 NR 10.60 144.37 1443 1443 __________P___ -1 10.60 144.37 2 7 281
1922 WP MM 06:00:00 NR 10.68 144.02 1462 1462 __________P___ -1 10.68 144.02 2 7 284
1922 WP MM 09:00:00 NR 10.77 143.70 1480 1480 __________P___ -1 10.77 143.70 2 6 287
1922 WP MM 10:00:00 NR 10.80 143.60 1483 1483 __________O___ -1 10.80 143.60 2 6 293
1922 WP MM 12:00:00 NR 10.88 143.42 1499 1499 __________P___ -1 10.88 143.42 2 5 299
1922 WP MM 15:00:00 NR 11.02 143.19 1515 1515 __________P___ -1 11.02 143.19 2 5 308
1922 WP MM 18:00:00 NR 11.20 143.00 1529 1529 __________P___ -1 11.20 143.00 2 5 319
1922 WP MM 21:00:00 NR 11.42 142.85 1542 1542 __________P___ -1 11.42 142.85 2 5 327
1922 WP MM 22:00:00 NR 11.50 142.80 1553 1553 __________O___ -1 11.50 142.80 2 6 333
1922 WP MM 1922-05-04 00:00:00 NR 11.67 142.71 1571 1571 __________P___ -1 11.67 142.71 2 6 337
1922 WP MM 03:00:00 NR 11.97 142.59 1599 1599 __________P___ -1 11.97 142.59 2 7 343
1922 WP MM 06:00:00 NR 12.31 142.50 1628 1628 __________P___ -1 12.31 142.50 2 7 347
1922 WP MM 09:00:00 NR 12.67 142.43 1667 1667 __________P___ -1 12.67 142.43 2 8 348
1922 WP MM 10:00:00 NR 12.80 142.40 1678 1678 __________O___ -1 12.80 142.40 2 8 348
1922 WP MM 12:00:00 NR 13.05 142.34 1697 1708 __________P___ -1 13.05 142.34 2 8 347
1922 WP MM 15:00:00 NR 13.44 142.25 1740 1746 __________P___ -1 13.44 142.25 2 8 349
1922 WP MM 18:00:00 NR 13.85 142.18 1787 1787 __________P___ -1 13.85 142.18 2 8 351
1922 WP MM 21:00:00 NR 14.26 142.12 1807 1807 __________P___ -1 14.26 142.12 2 8 352
1922 WP MM 22:00:00 NR 14.40 142.10 1809 1809 __________O___ -1 14.40 142.10 2 8 353
1922 WP MM 1922-05-05 00:00:00 NR 14.67 142.07 1815 1807 __________P___ -1 14.67 142.07 2 8 354
1922 WP MM 03:00:00 NR 15.09 142.03 1812 1812 __________P___ -1 15.09 142.03 2 8 356
1922 WP MM 06:00:00 NR 15.49 142.01 1819 1819 __________P___ -1 15.49 142.01 2 8 357
1922 WP MM 09:00:00 NR 15.88 142.00 1827 1827 __________P___ -1 15.88 142.00 2 8 359
1922 WP MM 10:00:00 NR 16.00 142.00 1829 1829 __________O___ -1 16.00 142.00 2 7 2
1922 WP MM 12:00:00 NR 16.24 142.01 1834 1836 __________P___ -1 16.24 142.01 2 7 0
1922 WP MM 15:00:00 NR 16.57 142.03 1844 1844 __________P___ -1 16.57 142.03 2 7 4
1922 WP MM 18:00:00 NR 16.89 142.05 1862 1862 __________P___ -1 16.89 142.05 2 6 5
1922 WP MM 21:00:00 NR 17.20 142.09 1870 1870 __________P___ -1 17.20 142.09 2 6 5
1922 WP MM 22:00:00 NR 17.30 142.10 1873 __________O___ -1 17.30 142.10 2 6 14